createdAt,value
2018-11-21T00:01:44.138Z,9.90
2018-11-21T00:04:25.734Z,9.30
2018-11-21T00:07:07.386Z,11.13
2018-11-21T00:09:49.434Z,9.65
2018-11-21T00:12:31.582Z,10.82
2018-11-21T00:15:13.382Z,11.20
2018-11-21T00:17:55.043Z,9.53
2018-11-21T00:20:37.505Z,8.60
2018-11-21T00:23:19.781Z,11.43
2018-11-21T00:26:02.126Z,9.23
2018-11-21T00:28:43.776Z,9.73
2018-11-21T00:31:26.274Z,10.27
2018-11-21T00:34:08.159Z,8.67
2018-11-21T00:36:50.864Z,9.27
2018-11-21T00:39:33.393Z,9.85
2018-11-21T00:42:15.140Z,8.93
2018-11-21T00:44:57.300Z,9.77
2018-11-21T00:47:39.729Z,8.80
2018-11-21T00:50:21.880Z,8.90
2018-11-21T00:55:48.807Z,8.90
2018-11-21T00:58:30.338Z,10.37
2018-11-21T01:01:12.257Z,9.50
2018-11-21T01:03:53.968Z,9.78
2018-11-21T01:06:36.044Z,9.47
2018-11-21T01:09:18.000Z,9.20
2018-11-21T01:12:00.535Z,9.08
2018-11-21T01:14:43.057Z,10.40
2018-11-21T01:17:25.281Z,8.50
2018-11-21T01:20:07.004Z,9.60
2018-11-21T01:22:48.691Z,10.15
2018-11-21T01:25:30.570Z,10.55
2018-11-21T01:28:12.204Z,11.05
2018-11-21T01:30:54.674Z,11.63
2018-11-21T01:33:37.168Z,10.70
2018-11-21T01:36:19.029Z,11.40
2018-11-21T01:39:00.664Z,11.10
2018-11-21T01:41:42.541Z,10.90
2018-11-21T01:44:24.482Z,12.33
2018-11-21T01:47:07.535Z,11.55
2018-11-21T01:49:49.196Z,13.28
2018-11-21T01:52:31.419Z,11.73
2018-11-21T01:55:13.743Z,13.90
2018-11-21T01:57:55.330Z,12.10
2018-11-21T02:00:37.063Z,13.28
2018-11-21T02:03:19.622Z,14.80
2018-11-21T02:06:01.234Z,14.30
2018-11-21T02:08:43.620Z,13.83
2018-11-21T02:11:25.271Z,14.23
2018-11-21T02:14:07.738Z,13.15
2018-11-21T02:16:50.030Z,13.10
2018-11-21T02:19:31.662Z,14.30
2018-11-21T02:22:13.418Z,15.70
2018-11-21T02:24:55.223Z,13.50
2018-11-21T02:27:36.942Z,14.40
2018-11-21T02:30:19.257Z,14.23
2018-11-21T02:33:00.943Z,13.15
2018-11-21T02:35:43.462Z,13.63
2018-11-21T02:38:25.890Z,12.70
2018-11-21T02:41:08.177Z,15.70
2018-11-21T02:43:50.439Z,15.17
2018-11-21T02:46:32.489Z,16.32
2018-11-21T02:49:15.218Z,17.90
2018-11-21T02:51:56.842Z,15.85
2018-11-21T02:54:39.370Z,14.93
2018-11-21T03:00:06.730Z,14.93
2018-11-21T03:02:48.527Z,16.17
2018-11-21T03:05:30.415Z,18.10
2018-11-21T03:08:12.425Z,18.02
2018-11-21T03:10:54.110Z,17.37
2018-11-21T03:13:36.788Z,14.85
2018-11-21T03:16:19.077Z,17.32
2018-11-21T03:19:00.735Z,16.05
2018-11-21T03:21:42.400Z,19.03
2018-11-21T03:24:24.909Z,16.23
2018-11-21T03:27:07.722Z,19.00
2018-11-21T03:29:50.274Z,19.80
2018-11-21T03:32:32.581Z,19.27
2018-11-21T03:35:14.798Z,17.60
2018-11-21T03:37:57.519Z,16.10
2018-11-21T03:40:39.875Z,15.73
2018-11-21T03:43:21.574Z,16.10
2018-11-21T03:46:49.477Z,16.17
2018-11-21T03:49:31.724Z,16.37
2018-11-21T03:52:13.354Z,17.23
2018-11-21T03:54:54.953Z,15.57
2018-11-21T03:57:36.687Z,15.70
2018-11-21T04:00:18.879Z,15.20
2018-11-21T04:03:00.192Z,17.48
2018-11-21T04:05:41.954Z,16.77
2018-11-21T04:08:24.219Z,16.33
2018-11-21T04:11:05.515Z,15.07
2018-11-21T04:13:47.644Z,16.40
2018-11-21T04:16:27.411Z,16.27
2018-11-21T04:19:16.303Z,16.67
2018-11-21T04:22:07.415Z,17.40
2018-11-21T04:24:53.818Z,18.15
2018-11-21T04:27:42.611Z,18.00
2018-11-21T04:30:31.438Z,16.75
2018-11-21T04:33:20.238Z,17.15
2018-11-21T04:36:09.550Z,17.98
2018-11-21T04:38:58.357Z,18.73
2018-11-21T04:41:47.107Z,18.30
2018-11-21T04:44:36.243Z,17.87
2018-11-21T04:47:25.015Z,19.20
2018-11-21T04:50:13.803Z,19.25
2018-11-21T04:53:02.660Z,15.90
2018-11-21T04:55:51.418Z,19.40
2018-11-21T04:58:40.218Z,18.47
2018-11-21T05:01:29.068Z,16.65
2018-11-21T05:07:32.503Z,19.10
2018-11-21T05:10:21.624Z,19.40
2018-11-21T05:13:10.449Z,18.65
2018-11-21T05:15:59.247Z,19.07
2018-11-21T05:18:48.100Z,20.17
2018-11-21T05:21:36.885Z,18.50
2018-11-21T05:24:26.091Z,17.53
2018-11-21T05:27:14.988Z,19.50
2018-11-21T05:30:03.953Z,19.27
2018-11-21T05:36:07.418Z,20.32
2018-11-21T05:38:56.430Z,18.83
2018-11-21T05:41:45.203Z,19.33
2018-11-21T05:44:33.974Z,19.90
2018-11-21T05:47:22.858Z,21.20
2018-11-21T05:50:12.910Z,20.97
2018-11-21T05:53:01.722Z,19.00
2018-11-21T05:55:50.620Z,22.73
2018-11-21T05:58:39.436Z,18.30
2018-11-21T06:01:28.258Z,19.40
2018-11-21T06:04:17.156Z,19.53
2018-11-21T06:07:06.012Z,20.63
2018-11-21T06:09:54.838Z,19.90
2018-11-21T06:12:44.471Z,20.60
2018-11-21T06:18:41.522Z,22.23
2018-11-21T06:24:45.311Z,22.97
2018-11-21T06:27:34.058Z,22.48
2018-11-21T06:30:22.824Z,25.48
2018-11-21T06:33:11.595Z,20.00
2018-11-21T06:36:00.346Z,21.50
2018-11-21T06:41:57.810Z,23.33
2018-11-21T06:44:46.622Z,21.07
2018-11-21T06:47:35.405Z,19.57
2018-11-21T06:53:32.869Z,21.70
2018-11-21T06:56:21.713Z,20.97
2018-11-21T06:59:11.020Z,22.53
2018-11-21T07:01:59.726Z,20.13
2018-11-21T07:04:48.603Z,20.60
2018-11-21T07:07:37.363Z,24.43
2018-11-21T07:10:26.408Z,21.93
2018-11-21T07:13:15.151Z,21.87
2018-11-21T07:16:04.085Z,20.77
2018-11-21T07:22:06.962Z,19.55
2018-11-21T07:24:56.179Z,21.03
2018-11-21T07:27:45.249Z,21.67
2018-11-21T07:30:34.029Z,20.50
2018-11-21T07:33:22.929Z,23.55
2018-11-21T07:36:11.707Z,24.40
2018-11-21T07:39:00.546Z,21.80
2018-11-21T07:41:49.264Z,21.87
2018-11-21T07:44:38.066Z,22.30
2018-11-21T07:47:26.862Z,23.90
2018-11-21T07:50:35.170Z,20.30
2018-11-21T07:53:24.299Z,22.10
2018-11-21T07:56:32.363Z,20.90
2018-11-21T07:59:21.076Z,25.23
2018-11-21T08:02:13.170Z,23.33
2018-11-21T08:08:37.586Z,24.17
2018-11-21T08:11:45.415Z,22.13
2018-11-21T08:14:53.228Z,24.80
2018-11-21T08:18:01.113Z,30.80
2018-11-21T08:21:08.960Z,27.40
2018-11-21T08:24:16.769Z,24.53
2018-11-21T08:30:37.225Z,27.13
2018-11-21T08:33:26.292Z,26.00
2018-11-21T08:36:15.213Z,23.15
2018-11-21T08:39:05.995Z,27.03
2018-11-21T08:41:54.813Z,25.67
2018-11-21T08:44:43.558Z,26.40
2018-11-21T08:47:32.326Z,23.23
2018-11-21T08:53:35.115Z,25.00
2018-11-21T08:56:23.862Z,22.77
2018-11-21T08:59:12.671Z,22.07
2018-11-21T09:02:01.447Z,23.20
2018-11-21T09:07:58.446Z,21.80
2018-11-21T09:10:47.242Z,21.90
2018-11-21T09:13:36.056Z,24.97
2018-11-21T09:16:24.851Z,23.03
2018-11-21T09:19:13.608Z,21.90
2018-11-21T09:22:02.743Z,23.47
2018-11-21T09:24:51.602Z,21.93
2018-11-21T09:27:40.971Z,22.20
2018-11-21T09:30:29.724Z,22.00
2018-11-21T09:33:18.599Z,23.10
2018-11-21T09:36:07.354Z,23.50
2018-11-21T09:38:56.096Z,23.33
2018-11-21T09:41:45.175Z,21.27
2018-11-21T09:44:33.925Z,21.90
2018-11-21T09:47:22.756Z,21.40
2018-11-21T09:53:21.741Z,22.43
2018-11-21T09:56:10.623Z,26.30
2018-11-21T10:02:33.157Z,24.60
2018-11-21T10:05:21.887Z,25.20
2018-11-21T10:08:29.951Z,21.87
2018-11-21T10:11:19.087Z,21.77
2018-11-21T10:17:22.930Z,21.63
2018-11-21T10:20:11.682Z,24.90
2018-11-21T10:23:00.484Z,21.47
2018-11-21T10:25:49.270Z,21.30
2018-11-21T10:31:52.196Z,19.33
2018-11-21T10:34:40.930Z,19.10
2018-11-21T10:37:29.759Z,21.90
2018-11-21T10:40:19.178Z,19.87
2018-11-21T10:46:21.733Z,23.90
2018-11-21T10:49:10.494Z,20.67
2018-11-21T10:51:59.605Z,26.57
2018-11-21T10:58:03.337Z,19.60
2018-11-21T11:01:11.161Z,21.23
2018-11-21T11:04:06.026Z,21.27
2018-11-21T11:07:13.850Z,20.03
2018-11-21T11:10:21.703Z,20.95
2018-11-21T11:13:35.278Z,22.00
2018-11-21T11:16:37.450Z,21.33
2018-11-21T11:19:45.465Z,21.83
2018-11-21T11:22:50.535Z,22.20
2018-11-21T11:25:58.320Z,22.23
2018-11-21T11:29:06.177Z,20.83
2018-11-21T11:32:14.027Z,21.97
2018-11-21T11:35:21.871Z,20.07
2018-11-21T11:38:29.726Z,20.83
2018-11-21T11:41:37.860Z,21.00
2018-11-21T11:44:38.940Z,23.17
2018-11-21T11:47:47.060Z,21.47
2018-11-21T11:50:55.022Z,23.43
2018-11-21T11:54:02.877Z,23.07
2018-11-21T11:57:10.660Z,28.07
2018-11-21T12:00:18.692Z,25.27
2018-11-21T12:03:26.503Z,27.13
2018-11-21T12:06:34.356Z,25.40
2018-11-21T12:09:42.174Z,29.97
2018-11-21T12:12:50.184Z,29.57
2018-11-21T12:15:57.997Z,30.20
2018-11-21T12:19:05.855Z,27.83
2018-11-21T12:22:13.728Z,27.23
2018-11-21T12:25:21.499Z,29.40
2018-11-21T12:28:29.347Z,23.70
2018-11-21T12:31:37.371Z,25.50
2018-11-21T12:34:45.218Z,24.70
2018-11-21T12:37:53.212Z,26.43
2018-11-21T12:41:01.066Z,28.27
2018-11-21T12:44:08.875Z,27.30
2018-11-21T12:47:16.699Z,28.77
2018-11-21T12:50:25.589Z,27.13
2018-11-21T12:53:33.397Z,30.77
2018-11-21T12:56:41.671Z,24.37
2018-11-21T12:59:49.513Z,28.90
2018-11-21T13:02:57.985Z,32.03
2018-11-21T13:06:06.191Z,32.20
2018-11-21T13:09:14.025Z,27.53
2018-11-21T13:12:21.883Z,28.10
2018-11-21T13:15:29.812Z,29.97
2018-11-21T13:18:37.665Z,31.00
2018-11-21T13:21:35.791Z,30.07
2018-11-21T13:24:43.631Z,25.80
2018-11-21T13:27:51.418Z,26.07
2018-11-21T13:30:59.645Z,29.00
2018-11-21T13:34:07.951Z,28.10
2018-11-21T13:37:15.784Z,28.13
2018-11-21T13:40:24.601Z,28.37
2018-11-21T13:43:32.406Z,26.97
2018-11-21T13:46:40.616Z,26.23
2018-11-21T13:49:48.486Z,28.17
2018-11-21T13:52:56.680Z,25.85
2018-11-21T13:55:45.668Z,29.77
2018-11-21T14:01:42.679Z,25.87
2018-11-21T14:04:31.520Z,28.27
2018-11-21T14:07:20.433Z,26.97
2018-11-21T14:10:10.273Z,25.50
2018-11-21T14:12:59.097Z,30.63
2018-11-21T14:15:47.873Z,28.93
2018-11-21T14:18:36.718Z,28.25
2018-11-21T14:21:25.435Z,33.33
2018-11-21T14:24:14.246Z,37.33
2018-11-21T14:27:03.107Z,32.40
2018-11-21T14:29:51.878Z,37.90
2018-11-21T14:32:41.417Z,31.27
2018-11-21T14:35:30.298Z,30.13
2018-11-21T14:38:19.192Z,27.60
2018-11-21T14:41:01.062Z,29.87
2018-11-21T14:43:42.338Z,29.03
2018-11-21T14:46:24.583Z,28.60
2018-11-21T14:49:06.425Z,26.30
2018-11-21T14:51:47.803Z,28.63
2018-11-21T14:54:29.893Z,25.23
2018-11-21T14:57:11.867Z,28.93
2018-11-21T14:59:53.296Z,30.43
2018-11-21T15:02:34.713Z,31.00
2018-11-21T15:05:16.252Z,27.97
2018-11-21T15:07:57.713Z,28.63
2018-11-21T15:10:39.430Z,27.27
2018-11-21T15:13:21.466Z,24.27
2018-11-21T15:16:02.711Z,25.20
2018-11-21T15:18:44.680Z,23.63
2018-11-21T15:21:26.794Z,24.87
2018-11-21T15:24:08.484Z,25.77
2018-11-21T15:26:49.797Z,24.97
2018-11-21T15:29:31.078Z,27.20
2018-11-21T15:32:12.937Z,26.37
2018-11-21T15:34:54.204Z,27.80
2018-11-21T15:37:36.119Z,25.27
2018-11-21T15:40:19.342Z,27.57
2018-11-21T15:43:01.260Z,26.13
2018-11-21T15:45:43.615Z,24.97
2018-11-21T15:48:25.274Z,24.10
2018-11-21T15:51:06.881Z,23.80
2018-11-21T15:53:48.150Z,25.80
2018-11-21T15:56:29.785Z,25.90
2018-11-21T15:59:11.682Z,26.30
2018-11-21T16:01:53.206Z,23.40
2018-11-21T16:04:34.742Z,22.27
2018-11-21T16:07:16.195Z,23.43
2018-11-21T16:09:58.084Z,25.57
2018-11-21T16:12:40.502Z,27.10
2018-11-21T16:15:23.888Z,23.33
2018-11-21T16:18:05.899Z,24.23
2018-11-21T16:20:48.078Z,25.70
2018-11-21T16:23:30.422Z,26.90
2018-11-21T16:26:12.167Z,24.13
2018-11-21T16:28:53.678Z,27.67
2018-11-21T16:31:35.116Z,29.07
2018-11-21T16:34:16.484Z,26.17
2018-11-21T16:36:58.672Z,24.23
2018-11-21T16:39:40.490Z,29.63
2018-11-21T16:42:22.672Z,26.20
2018-11-21T16:45:03.981Z,26.83
2018-11-21T16:47:45.575Z,31.17
2018-11-21T16:50:27.208Z,27.90
2018-11-21T16:53:08.632Z,25.37
2018-11-21T16:55:49.932Z,32.60
2018-11-21T16:58:31.738Z,28.23
2018-11-21T17:01:13.653Z,31.40
2018-11-21T17:03:54.948Z,27.40
2018-11-21T17:06:37.028Z,27.47
2018-11-21T17:09:18.621Z,27.30
2018-11-21T17:12:00.190Z,29.70
2018-11-21T17:14:42.611Z,29.30
2018-11-21T17:17:23.979Z,31.00
2018-11-21T17:20:05.441Z,31.30
2018-11-21T17:22:47.515Z,30.37
2018-11-21T17:25:34.198Z,25.43
2018-11-21T17:28:15.968Z,26.30
2018-11-21T17:30:57.458Z,25.97
2018-11-21T17:33:39.132Z,24.70
2018-11-21T17:36:20.597Z,23.83
2018-11-21T17:39:01.762Z,26.00
2018-11-21T17:41:43.280Z,24.93
2018-11-21T17:44:24.638Z,27.70
2018-11-21T17:47:06.102Z,27.93
2018-11-21T17:49:47.918Z,23.50
2018-11-21T17:52:29.297Z,28.40
2018-11-21T17:55:12.410Z,27.10
2018-11-21T17:57:54.305Z,24.20
2018-11-21T18:00:35.715Z,24.43
2018-11-21T18:03:17.656Z,24.10
2018-11-21T18:05:59.387Z,22.07
2018-11-21T18:08:40.702Z,23.37
2018-11-21T18:11:22.265Z,22.63
2018-11-21T18:14:03.603Z,23.73
2018-11-21T18:16:45.643Z,24.37
2018-11-21T18:19:27.493Z,23.00
2018-11-21T18:22:08.786Z,25.43
2018-11-21T18:24:50.191Z,27.20
2018-11-21T18:27:32.307Z,25.10
2018-11-21T18:30:15.299Z,24.40
2018-11-21T18:32:56.635Z,25.83
2018-11-21T18:35:38.809Z,25.83
2018-11-21T18:38:20.191Z,25.70
2018-11-21T18:41:01.799Z,26.40
2018-11-21T18:43:43.403Z,25.67
2018-11-21T18:46:25.170Z,25.20
2018-11-21T18:49:06.515Z,25.53
2018-11-21T18:51:46.371Z,24.80
2018-11-21T18:54:35.117Z,24.83
2018-11-21T18:57:43.200Z,24.20
2018-11-21T19:00:32.975Z,22.30
2018-11-21T19:03:21.751Z,24.40
2018-11-21T19:06:10.624Z,23.10
2018-11-21T19:08:59.375Z,19.97
2018-11-21T19:11:48.075Z,23.33
2018-11-21T19:14:37.101Z,27.13
2018-11-21T19:17:26.608Z,24.17
2018-11-21T19:20:34.622Z,21.20
2018-11-21T19:26:38.220Z,27.40
2018-11-21T19:29:27.002Z,24.87
2018-11-21T19:32:15.743Z,27.57
2018-11-21T19:35:04.595Z,27.43
2018-11-21T19:37:53.492Z,24.90
2018-11-21T19:40:42.356Z,28.70
2018-11-21T19:43:31.161Z,26.03
2018-11-21T19:46:19.967Z,28.40
2018-11-21T19:49:08.708Z,26.20
2018-11-21T19:51:57.826Z,25.07
2018-11-21T19:54:46.644Z,25.40
2018-11-21T19:57:35.471Z,24.57
2018-11-21T20:03:39.678Z,24.80
2018-11-21T20:06:28.505Z,26.63
2018-11-21T20:09:17.271Z,23.23
2018-11-21T20:12:06.119Z,25.53
2018-11-21T20:14:55.088Z,27.70
2018-11-21T20:20:59.238Z,25.77
2018-11-21T20:23:47.999Z,23.70
2018-11-21T20:26:36.949Z,26.80
2018-11-21T20:29:25.695Z,25.23
2018-11-21T20:32:14.411Z,24.40
2018-11-21T20:35:03.253Z,22.43
2018-11-21T20:37:52.054Z,22.70
2018-11-21T20:40:41.973Z,22.43
2018-11-21T20:49:47.261Z,21.90
2018-11-21T20:52:36.428Z,22.77
2018-11-21T21:04:56.693Z,24.17
2018-11-21T21:20:18.771Z,22.70
2018-11-21T21:23:07.486Z,20.70
2018-11-21T21:25:56.187Z,21.60
2018-11-21T21:28:45.619Z,21.80
2018-11-21T21:31:34.388Z,20.70
2018-11-21T21:34:23.099Z,23.37
2018-11-21T21:37:11.884Z,25.10
2018-11-21T21:40:00.606Z,23.27
2018-11-21T21:42:49.753Z,25.80
2018-11-21T21:45:38.638Z,23.00
2018-11-21T21:48:27.903Z,21.90
2018-11-21T21:51:16.762Z,20.00
2018-11-21T21:54:05.744Z,22.50
2018-11-21T21:56:54.548Z,22.10
2018-11-21T21:59:43.482Z,18.40
2018-11-21T22:02:32.337Z,22.50
2018-11-21T22:05:21.164Z,18.87
2018-11-21T22:08:09.875Z,21.10
2018-11-21T22:10:58.792Z,20.73
2018-11-21T22:13:47.875Z,21.77
2018-11-21T22:16:36.894Z,24.83
2018-11-21T22:19:25.599Z,21.90
2018-11-21T22:22:33.899Z,22.80
2018-11-21T22:25:23.122Z,21.60
2018-11-21T22:28:11.918Z,23.30
2018-11-21T22:31:00.773Z,21.70
2018-11-21T22:33:49.471Z,21.93
2018-11-21T22:36:38.237Z,24.97
2018-11-21T22:39:27.008Z,24.10
2018-11-21T22:42:15.821Z,21.73
2018-11-21T22:45:04.729Z,21.83
2018-11-21T22:51:08.900Z,20.40
2018-11-21T22:53:57.605Z,24.13
2018-11-21T23:00:01.055Z,21.60
2018-11-21T23:02:50.409Z,20.13
2018-11-21T23:08:53.632Z,18.60
2018-11-21T23:11:42.604Z,17.97
2018-11-21T23:14:31.373Z,19.97
2018-11-21T23:17:20.106Z,16.80
2018-11-21T23:20:10.120Z,18.43
2018-11-21T23:22:58.955Z,23.67
2018-11-21T23:25:47.768Z,19.63
2018-11-21T23:28:36.454Z,19.93
2018-11-21T23:31:25.166Z,20.60
2018-11-21T23:34:13.976Z,18.57
2018-11-21T23:37:02.796Z,18.00
2018-11-21T23:39:51.542Z,17.37
2018-11-21T23:42:41.437Z,15.90
2018-11-21T23:45:30.341Z,18.70
2018-11-21T23:48:19.154Z,17.70
2018-11-21T23:51:08.120Z,16.60
2018-11-21T23:53:56.922Z,16.67
2018-11-21T23:57:06.800Z,19.30
